sensor_id;sensor_type;location;lat;lon;timestamp;P1;durP1;ratioP1;P2;durP2;ratioP2
6105;SDS011;3083;51.508;7.966;2023-04-15T00:00:41;15.93;;;7.13;;
6105;SDS011;3083;51.508;7.966;2023-04-15T00:03:08;14.03;;;7.20;;
6105;SDS011;3083;51.508;7.966;2023-04-15T00:05:35;17.20;;;7.40;;
6105;SDS011;3083;51.508;7.966;2023-04-15T00:08:03;13.27;;;7.00;;
6105;SDS011;3083;51.508;7.966;2023-04-15T00:10:30;16.50;;;6.90;;
6105;SDS011;3083;51.508;7.966;2023-04-15T00:12:57;15.83;;;7.80;;
6105;SDS011;3083;51.508;7.966;2023-04-15T00:15:24;15.30;;;7.90;;
6105;SDS011;3083;51.508;7.966;2023-04-15T00:17:51;16.83;;;7.63;;
6105;SDS011;3083;51.508;7.966;2023-04-15T00:20:18;14.13;;;7.30;;
6105;SDS011;3083;51.508;7.966;2023-04-15T00:22:45;16.13;;;8.07;;
6105;SDS011;3083;51.508;7.966;2023-04-15T00:25:13;14.30;;;7.70;;
6105;SDS011;3083;51.508;7.966;2023-04-15T00:27:40;15.57;;;8.27;;
6105;SDS011;3083;51.508;7.966;2023-04-15T00:30:07;15.27;;;8.60;;
6105;SDS011;3083;51.508;7.966;2023-04-15T00:32:35;17.20;;;8.70;;
6105;SDS011;3083;51.508;7.966;2023-04-15T00:35:02;16.67;;;7.80;;
6105;SDS011;3083;51.508;7.966;2023-04-15T00:37:30;16.47;;;8.40;;
6105;SDS011;3083;51.508;7.966;2023-04-15T00:39:59;16.80;;;8.50;;
6105;SDS011;3083;51.508;7.966;2023-04-15T00:42:28;15.80;;;8.03;;
6105;SDS011;3083;51.508;7.966;2023-04-15T00:44:55;15.23;;;7.93;;
6105;SDS011;3083;51.508;7.966;2023-04-15T00:47:22;15.70;;;7.70;;
6105;SDS011;3083;51.508;7.966;2023-04-15T00:49:49;14.70;;;7.93;;
6105;SDS011;3083;51.508;7.966;2023-04-15T00:52:16;16.97;;;7.97;;
6105;SDS011;3083;51.508;7.966;2023-04-15T00:54:43;19.27;;;8.20;;
6105;SDS011;3083;51.508;7.966;2023-04-15T00:57:10;19.40;;;8.33;;
6105;SDS011;3083;51.508;7.966;2023-04-15T00:59:38;18.30;;;8.40;;
6105;SDS011;3083;51.508;7.966;2023-04-15T01:02:05;20.63;;;8.33;;
6105;SDS011;3083;51.508;7.966;2023-04-15T01:04:32;23.00;;;7.80;;
6105;SDS011;3083;51.508;7.966;2023-04-15T01:06:59;18.20;;;8.10;;
6105;SDS011;3083;51.508;7.966;2023-04-15T01:09:26;25.80;;;7.57;;
6105;SDS011;3083;51.508;7.966;2023-04-15T01:11:53;18.10;;;7.90;;
6105;SDS011;3083;51.508;7.966;2023-04-15T01:14:21;21.23;;;8.20;;
6105;SDS011;3083;51.508;7.966;2023-04-15T01:16:49;18.17;;;7.63;;
6105;SDS011;3083;51.508;7.966;2023-04-15T01:19:17;15.20;;;8.87;;
6105;SDS011;3083;51.508;7.966;2023-04-15T01:21:44;16.77;;;8.17;;
6105;SDS011;3083;51.508;7.966;2023-04-15T01:24:11;17.10;;;8.67;;
6105;SDS011;3083;51.508;7.966;2023-04-15T01:26:42;19.10;;;8.70;;
6105;SDS011;3083;51.508;7.966;2023-04-15T01:29:09;16.70;;;8.03;;
6105;SDS011;3083;51.508;7.966;2023-04-15T01:31:36;21.30;;;9.93;;
6105;SDS011;3083;51.508;7.966;2023-04-15T01:34:03;24.70;;;9.33;;
6105;SDS011;3083;51.508;7.966;2023-04-15T01:36:30;18.30;;;9.90;;
6105;SDS011;3083;51.508;7.966;2023-04-15T01:38:57;14.40;;;7.90;;
6105;SDS011;3083;51.508;7.966;2023-04-15T01:41:24;15.80;;;7.47;;
6105;SDS011;3083;51.508;7.966;2023-04-15T01:43:53;17.20;;;8.27;;
6105;SDS011;3083;51.508;7.966;2023-04-15T01:46:21;20.00;;;9.50;;
6105;SDS011;3083;51.508;7.966;2023-04-15T01:48:48;17.90;;;9.40;;
6105;SDS011;3083;51.508;7.966;2023-04-15T01:51:15;20.13;;;9.23;;
6105;SDS011;3083;51.508;7.966;2023-04-15T01:53:42;17.53;;;8.43;;
6105;SDS011;3083;51.508;7.966;2023-04-15T01:56:08;19.60;;;8.00;;
6105;SDS011;3083;51.508;7.966;2023-04-15T01:58:36;16.60;;;7.70;;
6105;SDS011;3083;51.508;7.966;2023-04-15T02:01:05;19.30;;;8.30;;
6105;SDS011;3083;51.508;7.966;2023-04-15T02:03:34;19.10;;;8.00;;
6105;SDS011;3083;51.508;7.966;2023-04-15T02:06:01;15.77;;;8.13;;
6105;SDS011;3083;51.508;7.966;2023-04-15T02:08:28;14.83;;;7.70;;
6105;SDS011;3083;51.508;7.966;2023-04-15T02:10:55;20.43;;;8.10;;
6105;SDS011;3083;51.508;7.966;2023-04-15T02:13:22;16.33;;;7.60;;
6105;SDS011;3083;51.508;7.966;2023-04-15T02:15:49;20.03;;;7.60;;
6105;SDS011;3083;51.508;7.966;2023-04-15T02:18:18;19.50;;;8.57;;
6105;SDS011;3083;51.508;7.966;2023-04-15T02:20:45;16.37;;;7.87;;
6105;SDS011;3083;51.508;7.966;2023-04-15T02:23:12;15.00;;;7.53;;
6105;SDS011;3083;51.508;7.966;2023-04-15T02:25:39;20.17;;;8.50;;
6105;SDS011;3083;51.508;7.966;2023-04-15T02:28:06;17.93;;;8.17;;
6105;SDS011;3083;51.508;7.966;2023-04-15T02:30:33;17.70;;;8.30;;
6105;SDS011;3083;51.508;7.966;2023-04-15T02:33:00;16.43;;;8.23;;
6105;SDS011;3083;51.508;7.966;2023-04-15T02:35:29;16.33;;;8.20;;
6105;SDS011;3083;51.508;7.966;2023-04-15T02:37:56;19.03;;;8.00;;
6105;SDS011;3083;51.508;7.966;2023-04-15T02:40:23;16.23;;;7.80;;
6105;SDS011;3083;51.508;7.966;2023-04-15T02:42:50;13.17;;;6.90;;
6105;SDS011;3083;51.508;7.966;2023-04-15T02:45:16;17.10;;;7.60;;
6105;SDS011;3083;51.508;7.966;2023-04-15T02:47:47;14.90;;;7.23;;
6105;SDS011;3083;51.508;7.966;2023-04-15T02:50:14;13.60;;;7.03;;
6105;SDS011;3083;51.508;7.966;2023-04-15T02:52:43;14.47;;;7.03;;
6105;SDS011;3083;51.508;7.966;2023-04-15T02:55:10;13.67;;;7.00;;
6105;SDS011;3083;51.508;7.966;2023-04-15T02:57:37;13.53;;;6.63;;
6105;SDS011;3083;51.508;7.966;2023-04-15T03:00:05;18.10;;;7.50;;
6105;SDS011;3083;51.508;7.966;2023-04-15T03:02:35;13.87;;;7.20;;
6105;SDS011;3083;51.508;7.966;2023-04-15T03:05:03;16.67;;;7.63;;
6105;SDS011;3083;51.508;7.966;2023-04-15T03:07:31;13.03;;;6.40;;
6105;SDS011;3083;51.508;7.966;2023-04-15T03:09:59;16.07;;;7.57;;
6105;SDS011;3083;51.508;7.966;2023-04-15T03:12:26;17.07;;;7.40;;
6105;SDS011;3083;51.508;7.966;2023-04-15T03:14:54;14.40;;;6.93;;
6105;SDS011;3083;51.508;7.966;2023-04-15T03:17:21;14.20;;;6.97;;
6105;SDS011;3083;51.508;7.966;2023-04-15T03:19:48;15.67;;;6.60;;
6105;SDS011;3083;51.508;7.966;2023-04-15T03:22:15;17.03;;;6.53;;
6105;SDS011;3083;51.508;7.966;2023-04-15T03:24:42;14.83;;;6.73;;
6105;SDS011;3083;51.508;7.966;2023-04-15T03:27:10;11.83;;;6.53;;
6105;SDS011;3083;51.508;7.966;2023-04-15T03:29:37;17.43;;;7.07;;
6105;SDS011;3083;51.508;7.966;2023-04-15T03:32:05;9.87;;;5.20;;
6105;SDS011;3083;51.508;7.966;2023-04-15T03:34:32;10.80;;;6.40;;
6105;SDS011;3083;51.508;7.966;2023-04-15T03:36:59;17.60;;;6.60;;
6105;SDS011;3083;51.508;7.966;2023-04-15T03:39:25;12.80;;;6.17;;
6105;SDS011;3083;51.508;7.966;2023-04-15T03:41:52;12.93;;;5.83;;
6105;SDS011;3083;51.508;7.966;2023-04-15T03:44:21;13.13;;;5.80;;
6105;SDS011;3083;51.508;7.966;2023-04-15T03:46:48;13.87;;;6.97;;
6105;SDS011;3083;51.508;7.966;2023-04-15T03:49:15;17.03;;;6.87;;
6105;SDS011;3083;51.508;7.966;2023-04-15T03:51:43;14.60;;;7.10;;
6105;SDS011;3083;51.508;7.966;2023-04-15T03:54:10;14.57;;;6.33;;
6105;SDS011;3083;51.508;7.966;2023-04-15T03:56:39;14.50;;;6.80;;
6105;SDS011;3083;51.508;7.966;2023-04-15T03:59:06;13.17;;;6.67;;
6105;SDS011;3083;51.508;7.966;2023-04-15T04:01:35;17.23;;;7.03;;
6105;SDS011;3083;51.508;7.966;2023-04-15T04:04:02;16.30;;;6.40;;
6105;SDS011;3083;51.508;7.966;2023-04-15T04:06:29;12.70;;;6.37;;
6105;SDS011;3083;51.508;7.966;2023-04-15T04:08:56;12.03;;;6.80;;
6105;SDS011;3083;51.508;7.966;2023-04-15T04:11:22;15.27;;;7.10;;
6105;SDS011;3083;51.508;7.966;2023-04-15T04:13:50;14.47;;;7.53;;
6105;SDS011;3083;51.508;7.966;2023-04-15T04:16:16;18.47;;;7.87;;
6105;SDS011;3083;51.508;7.966;2023-04-15T04:18:45;19.60;;;7.70;;
6105;SDS011;3083;51.508;7.966;2023-04-15T04:21:12;15.83;;;7.40;;
6105;SDS011;3083;51.508;7.966;2023-04-15T04:23:39;15.77;;;8.47;;
6105;SDS011;3083;51.508;7.966;2023-04-15T04:26:05;13.80;;;7.30;;
6105;SDS011;3083;51.508;7.966;2023-04-15T04:28:33;15.97;;;7.30;;
6105;SDS011;3083;51.508;7.966;2023-04-15T04:31:00;12.90;;;7.23;;
6105;SDS011;3083;51.508;7.966;2023-04-15T04:33:27;17.37;;;6.60;;
6105;SDS011;3083;51.508;7.966;2023-04-15T04:35:56;16.00;;;7.37;;
6105;SDS011;3083;51.508;7.966;2023-04-15T04:38:23;15.50;;;7.70;;
6105;SDS011;3083;51.508;7.966;2023-04-15T04:40:50;16.83;;;7.93;;
6105;SDS011;3083;51.508;7.966;2023-04-15T04:43:17;16.67;;;8.17;;
6105;SDS011;3083;51.508;7.966;2023-04-15T04:45:43;17.10;;;7.67;;
6105;SDS011;3083;51.508;7.966;2023-04-15T04:48:10;16.93;;;7.80;;
6105;SDS011;3083;51.508;7.966;2023-04-15T04:50:37;23.03;;;8.67;;
6105;SDS011;3083;51.508;7.966;2023-04-15T04:53:05;14.37;;;7.10;;
6105;SDS011;3083;51.508;7.966;2023-04-15T04:55:33;18.90;;;9.07;;
6105;SDS011;3083;51.508;7.966;2023-04-15T04:58:01;19.00;;;8.10;;
6105;SDS011;3083;51.508;7.966;2023-04-15T05:00:28;17.47;;;8.47;;
6105;SDS011;3083;51.508;7.966;2023-04-15T05:02:54;18.10;;;7.57;;
6105;SDS011;3083;51.508;7.966;2023-04-15T05:05:22;21.07;;;8.90;;
6105;SDS011;3083;51.508;7.966;2023-04-15T05:07:49;23.63;;;10.10;;
6105;SDS011;3083;51.508;7.966;2023-04-15T05:10:18;22.83;;;9.90;;
6105;SDS011;3083;51.508;7.966;2023-04-15T05:12:45;26.83;;;9.80;;
6105;SDS011;3083;51.508;7.966;2023-04-15T05:15:12;21.53;;;8.97;;
6105;SDS011;3083;51.508;7.966;2023-04-15T05:17:39;16.93;;;8.83;;
6105;SDS011;3083;51.508;7.966;2023-04-15T05:20:06;17.10;;;8.17;;
6105;SDS011;3083;51.508;7.966;2023-04-15T05:22:34;21.60;;;9.27;;
6105;SDS011;3083;51.508;7.966;2023-04-15T05:25:02;20.70;;;9.30;;
6105;SDS011;3083;51.508;7.966;2023-04-15T05:27:30;17.47;;;8.57;;
6105;SDS011;3083;51.508;7.966;2023-04-15T05:29:57;21.37;;;9.37;;
6105;SDS011;3083;51.508;7.966;2023-04-15T05:32:24;18.20;;;8.60;;
6105;SDS011;3083;51.508;7.966;2023-04-15T05:34:51;20.47;;;9.10;;
6105;SDS011;3083;51.508;7.966;2023-04-15T05:37:18;19.33;;;9.30;;
6105;SDS011;3083;51.508;7.966;2023-04-15T05:39:46;18.07;;;8.93;;
6105;SDS011;3083;51.508;7.966;2023-04-15T05:42:13;17.30;;;9.30;;
6105;SDS011;3083;51.508;7.966;2023-04-15T05:44:42;23.33;;;10.40;;
6105;SDS011;3083;51.508;7.966;2023-04-15T05:47:09;24.83;;;10.23;;
6105;SDS011;3083;51.508;7.966;2023-04-15T05:49:35;26.30;;;10.90;;
6105;SDS011;3083;51.508;7.966;2023-04-15T05:52:02;22.47;;;10.20;;
6105;SDS011;3083;51.508;7.966;2023-04-15T05:54:30;23.70;;;11.53;;
6105;SDS011;3083;51.508;7.966;2023-04-15T05:56:57;24.77;;;11.80;;
6105;SDS011;3083;51.508;7.966;2023-04-15T05:59:25;26.17;;;11.50;;
6105;SDS011;3083;51.508;7.966;2023-04-15T06:01:53;28.63;;;10.97;;
6105;SDS011;3083;51.508;7.966;2023-04-15T06:04:21;27.03;;;11.60;;
6105;SDS011;3083;51.508;7.966;2023-04-15T06:06:48;21.67;;;11.37;;
6105;SDS011;3083;51.508;7.966;2023-04-15T06:09:15;26.10;;;11.33;;
6105;SDS011;3083;51.508;7.966;2023-04-15T06:11:41;24.77;;;11.60;;
6105;SDS011;3083;51.508;7.966;2023-04-15T06:14:08;24.53;;;10.87;;
6105;SDS011;3083;51.508;7.966;2023-04-15T06:16:35;27.03;;;11.50;;
6105;SDS011;3083;51.508;7.966;2023-04-15T06:19:03;25.47;;;11.43;;
6105;SDS011;3083;51.508;7.966;2023-04-15T06:21:30;27.47;;;12.23;;
6105;SDS011;3083;51.508;7.966;2023-04-15T06:23:57;25.50;;;11.73;;
6105;SDS011;3083;51.508;7.966;2023-04-15T06:26:26;26.03;;;11.87;;
6105;SDS011;3083;51.508;7.966;2023-04-15T06:28:53;28.10;;;11.93;;
6105;SDS011;3083;51.508;7.966;2023-04-15T06:31:20;25.03;;;12.70;;
6105;SDS011;3083;51.508;7.966;2023-04-15T06:33:47;24.10;;;11.63;;
6105;SDS011;3083;51.508;7.966;2023-04-15T06:36:16;23.80;;;12.17;;
6105;SDS011;3083;51.508;7.966;2023-04-15T06:38:43;23.30;;;12.87;;
6105;SDS011;3083;51.508;7.966;2023-04-15T06:41:10;26.23;;;11.87;;
6105;SDS011;3083;51.508;7.966;2023-04-15T06:43:37;23.57;;;11.70;;
6105;SDS011;3083;51.508;7.966;2023-04-15T06:46:04;23.70;;;12.03;;
6105;SDS011;3083;51.508;7.966;2023-04-15T06:48:31;20.80;;;11.27;;
6105;SDS011;3083;51.508;7.966;2023-04-15T06:50:58;23.70;;;11.17;;
6105;SDS011;3083;51.508;7.966;2023-04-15T06:53:26;21.03;;;10.73;;
6105;SDS011;3083;51.508;7.966;2023-04-15T06:55:53;28.60;;;11.67;;
6105;SDS011;3083;51.508;7.966;2023-04-15T06:58:21;23.23;;;11.50;;
6105;SDS011;3083;51.508;7.966;2023-04-15T07:00:48;22.17;;;10.80;;
6105;SDS011;3083;51.508;7.966;2023-04-15T07:03:15;24.27;;;11.47;;
6105;SDS011;3083;51.508;7.966;2023-04-15T07:05:42;25.17;;;11.60;;
6105;SDS011;3083;51.508;7.966;2023-04-15T07:08:08;27.80;;;11.87;;
6105;SDS011;3083;51.508;7.966;2023-04-15T07:10:37;24.80;;;11.60;;
6105;SDS011;3083;51.508;7.966;2023-04-15T07:13:04;23.33;;;11.33;;
6105;SDS011;3083;51.508;7.966;2023-04-15T07:15:32;23.53;;;10.80;;
6105;SDS011;3083;51.508;7.966;2023-04-15T07:17:59;23.30;;;12.30;;
6105;SDS011;3083;51.508;7.966;2023-04-15T07:20:26;24.53;;;11.30;;
6105;SDS011;3083;51.508;7.966;2023-04-15T07:22:53;22.23;;;10.90;;
6105;SDS011;3083;51.508;7.966;2023-04-15T07:25:20;21.63;;;10.27;;
6105;SDS011;3083;51.508;7.966;2023-04-15T07:27:49;20.90;;;10.70;;
6105;SDS011;3083;51.508;7.966;2023-04-15T07:30:16;21.40;;;11.07;;
6105;SDS011;3083;51.508;7.966;2023-04-15T07:32:43;23.23;;;11.40;;
6105;SDS011;3083;51.508;7.966;2023-04-15T07:35:10;22.80;;;10.93;;
6105;SDS011;3083;51.508;7.966;2023-04-15T07:37:37;23.40;;;11.30;;
6105;SDS011;3083;51.508;7.966;2023-04-15T07:40:05;19.50;;;9.80;;
6105;SDS011;3083;51.508;7.966;2023-04-15T07:42:33;21.00;;;10.13;;
6105;SDS011;3083;51.508;7.966;2023-04-15T07:45:02;24.23;;;11.47;;
6105;SDS011;3083;51.508;7.966;2023-04-15T07:47:29;21.23;;;10.47;;
6105;SDS011;3083;51.508;7.966;2023-04-15T07:49:56;21.17;;;10.43;;
6105;SDS011;3083;51.508;7.966;2023-04-15T07:52:23;20.07;;;10.90;;
6105;SDS011;3083;51.508;7.966;2023-04-15T07:54:50;19.90;;;9.93;;
6105;SDS011;3083;51.508;7.966;2023-04-15T07:57:17;20.30;;;9.63;;
6105;SDS011;3083;51.508;7.966;2023-04-15T07:59:44;19.73;;;10.13;;
6105;SDS011;3083;51.508;7.966;2023-04-15T08:02:12;18.50;;;9.77;;
6105;SDS011;3083;51.508;7.966;2023-04-15T08:04:39;17.97;;;9.90;;
6105;SDS011;3083;51.508;7.966;2023-04-15T08:07:06;19.73;;;9.73;;
6105;SDS011;3083;51.508;7.966;2023-04-15T08:09:33;20.30;;;9.93;;
6105;SDS011;3083;51.508;7.966;2023-04-15T08:12:01;18.33;;;9.30;;
6105;SDS011;3083;51.508;7.966;2023-04-15T08:14:28;20.03;;;10.60;;
6105;SDS011;3083;51.508;7.966;2023-04-15T08:16:56;15.83;;;8.60;;
6105;SDS011;3083;51.508;7.966;2023-04-15T08:19:24;20.33;;;10.20;;
6105;SDS011;3083;51.508;7.966;2023-04-15T08:21:51;21.50;;;10.17;;
6105;SDS011;3083;51.508;7.966;2023-04-15T08:24:18;19.63;;;10.77;;
6105;SDS011;3083;51.508;7.966;2023-04-15T08:26:45;21.50;;;11.63;;
6105;SDS011;3083;51.508;7.966;2023-04-15T08:29:12;20.60;;;11.87;;
6105;SDS011;3083;51.508;7.966;2023-04-15T08:31:39;22.93;;;11.53;;
6105;SDS011;3083;51.508;7.966;2023-04-15T08:34:06;21.80;;;10.87;;
6105;SDS011;3083;51.508;7.966;2023-04-15T08:36:34;23.43;;;12.30;;
6105;SDS011;3083;51.508;7.966;2023-04-15T08:39:01;24.37;;;10.80;;
6105;SDS011;3083;51.508;7.966;2023-04-15T08:44:12;23.47;;;11.20;;
6105;SDS011;3083;51.508;7.966;2023-04-15T08:46:40;21.40;;;11.20;;
6105;SDS011;3083;51.508;7.966;2023-04-15T08:49:09;23.30;;;11.87;;
6105;SDS011;3083;51.508;7.966;2023-04-15T08:51:39;22.23;;;11.50;;
6105;SDS011;3083;51.508;7.966;2023-04-15T08:54:06;22.37;;;11.53;;
6105;SDS011;3083;51.508;7.966;2023-04-15T08:56:34;25.10;;;12.90;;
6105;SDS011;3083;51.508;7.966;2023-04-15T08:59:02;22.97;;;12.13;;
6105;SDS011;3083;51.508;7.966;2023-04-15T09:01:29;23.50;;;11.43;;
6105;SDS011;3083;51.508;7.966;2023-04-15T09:03:57;21.03;;;11.07;;
6105;SDS011;3083;51.508;7.966;2023-04-15T09:06:25;21.57;;;11.37;;
6105;SDS011;3083;51.508;7.966;2023-04-15T09:08:53;20.13;;;10.63;;
6105;SDS011;3083;51.508;7.966;2023-04-15T09:11:20;20.50;;;10.67;;
6105;SDS011;3083;51.508;7.966;2023-04-15T09:13:48;20.03;;;11.20;;
6105;SDS011;3083;51.508;7.966;2023-04-15T09:16:15;21.37;;;12.00;;
6105;SDS011;3083;51.508;7.966;2023-04-15T09:18:42;20.80;;;11.23;;
6105;SDS011;3083;51.508;7.966;2023-04-15T09:21:10;20.87;;;10.57;;
6105;SDS011;3083;51.508;7.966;2023-04-15T09:23:39;22.37;;;11.07;;
6105;SDS011;3083;51.508;7.966;2023-04-15T09:26:08;25.37;;;11.37;;
6105;SDS011;3083;51.508;7.966;2023-04-15T09:28:40;22.33;;;11.40;;
6105;SDS011;3083;51.508;7.966;2023-04-15T09:31:07;21.83;;;10.80;;
6105;SDS011;3083;51.508;7.966;2023-04-15T09:33:35;21.70;;;10.37;;
6105;SDS011;3083;51.508;7.966;2023-04-15T09:36:20;22.27;;;10.60;;
6105;SDS011;3083;51.508;7.966;2023-04-15T09:38:53;21.43;;;9.93;;
6105;SDS011;3083;51.508;7.966;2023-04-15T09:41:22;20.20;;;10.37;;
6105;SDS011;3083;51.508;7.966;2023-04-15T09:43:50;22.40;;;11.30;;
6105;SDS011;3083;51.508;7.966;2023-04-15T09:46:17;24.90;;;11.40;;
6105;SDS011;3083;51.508;7.966;2023-04-15T09:48:44;24.47;;;11.83;;
6105;SDS011;3083;51.508;7.966;2023-04-15T09:51:11;23.97;;;11.53;;
6105;SDS011;3083;51.508;7.966;2023-04-15T09:53:39;23.13;;;11.07;;
6105;SDS011;3083;51.508;7.966;2023-04-15T09:56:06;21.27;;;10.70;;
6105;SDS011;3083;51.508;7.966;2023-04-15T09:58:36;20.20;;;10.33;;
6105;SDS011;3083;51.508;7.966;2023-04-15T10:01:05;21.83;;;10.20;;
6105;SDS011;3083;51.508;7.966;2023-04-15T10:03:35;22.50;;;10.57;;
6105;SDS011;3083;51.508;7.966;2023-04-15T10:06:03;20.40;;;10.03;;
6105;SDS011;3083;51.508;7.966;2023-04-15T10:08:31;21.10;;;10.83;;
6105;SDS011;3083;51.508;7.966;2023-04-15T10:10:59;21.93;;;9.63;;
6105;SDS011;3083;51.508;7.966;2023-04-15T10:13:28;20.53;;;9.80;;
6105;SDS011;3083;51.508;7.966;2023-04-15T10:16:03;21.40;;;10.07;;
6105;SDS011;3083;51.508;7.966;2023-04-15T10:18:33;21.07;;;9.70;;
6105;SDS011;3083;51.508;7.966;2023-04-15T10:21:03;18.80;;;9.30;;
6105;SDS011;3083;51.508;7.966;2023-04-15T10:23:31;22.00;;;10.03;;
6105;SDS011;3083;51.508;7.966;2023-04-15T10:25:58;24.10;;;10.47;;
6105;SDS011;3083;51.508;7.966;2023-04-15T10:28:27;24.37;;;9.90;;
6105;SDS011;3083;51.508;7.966;2023-04-15T10:30:55;23.40;;;10.50;;
6105;SDS011;3083;51.508;7.966;2023-04-15T10:33:25;21.90;;;9.67;;
6105;SDS011;3083;51.508;7.966;2023-04-15T10:35:53;18.10;;;8.20;;
6105;SDS011;3083;51.508;7.966;2023-04-15T10:38:31;16.40;;;8.17;;
6105;SDS011;3083;51.508;7.966;2023-04-15T10:41:10;18.30;;;8.63;;
6105;SDS011;3083;51.508;7.966;2023-04-15T10:43:39;19.97;;;9.40;;
6105;SDS011;3083;51.508;7.966;2023-04-15T10:46:10;21.23;;;8.13;;
6105;SDS011;3083;51.508;7.966;2023-04-15T10:48:38;17.50;;;8.10;;
6105;SDS011;3083;51.508;7.966;2023-04-15T10:51:13;17.27;;;8.50;;
6105;SDS011;3083;51.508;7.966;2023-04-15T10:53:40;20.93;;;8.63;;
6105;SDS011;3083;51.508;7.966;2023-04-15T10:56:08;17.83;;;8.60;;
6105;SDS011;3083;51.508;7.966;2023-04-15T10:58:40;17.33;;;8.83;;
6105;SDS011;3083;51.508;7.966;2023-04-15T11:01:08;20.13;;;8.37;;
6105;SDS011;3083;51.508;7.966;2023-04-15T11:03:35;21.90;;;9.03;;
6105;SDS011;3083;51.508;7.966;2023-04-15T11:06:05;16.80;;;7.93;;
6105;SDS011;3083;51.508;7.966;2023-04-15T11:14:32;19.67;;;7.47;;
6105;SDS011;3083;51.508;7.966;2023-04-15T11:17:00;19.70;;;7.90;;
6105;SDS011;3083;51.508;7.966;2023-04-15T11:19:34;18.70;;;8.20;;
6105;SDS011;3083;51.508;7.966;2023-04-15T11:22:07;15.33;;;7.20;;
6105;SDS011;3083;51.508;7.966;2023-04-15T11:24:34;19.17;;;7.80;;
6105;SDS011;3083;51.508;7.966;2023-04-15T11:27:01;19.97;;;8.00;;
6105;SDS011;3083;51.508;7.966;2023-04-15T11:29:28;18.50;;;7.90;;
6105;SDS011;3083;51.508;7.966;2023-04-15T11:32:03;19.60;;;7.90;;
6105;SDS011;3083;51.508;7.966;2023-04-15T11:34:31;16.67;;;6.90;;
6105;SDS011;3083;51.508;7.966;2023-04-15T11:36:59;15.90;;;7.03;;
6105;SDS011;3083;51.508;7.966;2023-04-15T11:39:31;15.07;;;6.73;;
6105;SDS011;3083;51.508;7.966;2023-04-15T11:41:58;15.03;;;7.60;;
6105;SDS011;3083;51.508;7.966;2023-04-15T11:44:25;15.03;;;6.90;;
6105;SDS011;3083;51.508;7.966;2023-04-15T11:46:53;14.73;;;6.70;;
6105;SDS011;3083;51.508;7.966;2023-04-15T11:49:27;15.10;;;7.20;;
6105;SDS011;3083;51.508;7.966;2023-04-15T11:51:54;15.90;;;7.10;;
6105;SDS011;3083;51.508;7.966;2023-04-15T11:54:21;16.30;;;7.70;;
6105;SDS011;3083;51.508;7.966;2023-04-15T11:56:53;19.37;;;8.90;;
6105;SDS011;3083;51.508;7.966;2023-04-15T11:59:20;17.13;;;7.87;;
6105;SDS011;3083;51.508;7.966;2023-04-15T12:01:47;18.17;;;7.83;;
6105;SDS011;3083;51.508;7.966;2023-04-15T12:04:16;17.97;;;8.40;;
6105;SDS011;3083;51.508;7.966;2023-04-15T12:06:46;22.93;;;10.30;;
6105;SDS011;3083;51.508;7.966;2023-04-15T12:09:14;21.70;;;8.50;;
6105;SDS011;3083;51.508;7.966;2023-04-15T12:11:42;22.53;;;8.70;;
6105;SDS011;3083;51.508;7.966;2023-04-15T12:14:15;20.73;;;9.20;;
6105;SDS011;3083;51.508;7.966;2023-04-15T12:16:47;19.47;;;9.17;;
6105;SDS011;3083;51.508;7.966;2023-04-15T12:19:16;24.10;;;9.33;;
6105;SDS011;3083;51.508;7.966;2023-04-15T12:21:46;17.00;;;8.07;;
6105;SDS011;3083;51.508;7.966;2023-04-15T12:24:14;21.33;;;9.13;;
6105;SDS011;3083;51.508;7.966;2023-04-15T12:26:45;18.03;;;8.57;;
6105;SDS011;3083;51.508;7.966;2023-04-15T12:29:15;16.23;;;7.37;;
6105;SDS011;3083;51.508;7.966;2023-04-15T12:31:46;18.00;;;7.77;;
6105;SDS011;3083;51.508;7.966;2023-04-15T12:34:14;18.17;;;7.53;;
6105;SDS011;3083;51.508;7.966;2023-04-15T12:36:42;16.27;;;8.77;;
6105;SDS011;3083;51.508;7.966;2023-04-15T12:39:09;15.07;;;7.47;;
6105;SDS011;3083;51.508;7.966;2023-04-15T12:41:36;19.33;;;8.87;;
6105;SDS011;3083;51.508;7.966;2023-04-15T12:44:03;15.23;;;8.40;;
6105;SDS011;3083;51.508;7.966;2023-04-15T12:46:31;19.17;;;8.20;;
6105;SDS011;3083;51.508;7.966;2023-04-15T12:48:58;19.87;;;7.50;;
6105;SDS011;3083;51.508;7.966;2023-04-15T12:51:26;14.63;;;7.80;;
6105;SDS011;3083;51.508;7.966;2023-04-15T12:53:53;15.23;;;7.00;;
6105;SDS011;3083;51.508;7.966;2023-04-15T12:56:20;14.33;;;7.57;;
6105;SDS011;3083;51.508;7.966;2023-04-15T12:58:48;20.53;;;9.30;;
6105;SDS011;3083;51.508;7.966;2023-04-15T13:01:15;15.83;;;7.40;;
6105;SDS011;3083;51.508;7.966;2023-04-15T13:03:44;13.90;;;7.20;;
6105;SDS011;3083;51.508;7.966;2023-04-15T13:06:11;16.47;;;8.10;;
6105;SDS011;3083;51.508;7.966;2023-04-15T13:08:37;14.97;;;7.50;;
6105;SDS011;3083;51.508;7.966;2023-04-15T13:11:05;17.60;;;8.30;;
6105;SDS011;3083;51.508;7.966;2023-04-15T13:13:32;20.80;;;7.53;;
6105;SDS011;3083;51.508;7.966;2023-04-15T13:15:59;17.63;;;8.03;;
6105;SDS011;3083;51.508;7.966;2023-04-15T13:18:27;15.30;;;7.90;;
6105;SDS011;3083;51.508;7.966;2023-04-15T13:20:56;18.87;;;7.33;;
6105;SDS011;3083;51.508;7.966;2023-04-15T13:23:23;14.27;;;6.90;;
6105;SDS011;3083;51.508;7.966;2023-04-15T13:25:50;14.97;;;6.27;;
6105;SDS011;3083;51.508;7.966;2023-04-15T13:28:17;12.00;;;6.40;;
6105;SDS011;3083;51.508;7.966;2023-04-15T13:30:44;12.00;;;6.77;;
6105;SDS011;3083;51.508;7.966;2023-04-15T13:33:12;14.70;;;6.57;;
6105;SDS011;3083;51.508;7.966;2023-04-15T13:35:39;12.83;;;6.43;;
6105;SDS011;3083;51.508;7.966;2023-04-15T13:38:08;16.80;;;6.67;;
6105;SDS011;3083;51.508;7.966;2023-04-15T13:40:35;15.30;;;6.70;;
6105;SDS011;3083;51.508;7.966;2023-04-15T13:43:02;14.73;;;6.90;;
6105;SDS011;3083;51.508;7.966;2023-04-15T13:45:29;16.53;;;8.07;;
6105;SDS011;3083;51.508;7.966;2023-04-15T13:47:56;11.10;;;6.00;;
6105;SDS011;3083;51.508;7.966;2023-04-15T13:50:23;16.07;;;7.33;;
6105;SDS011;3083;51.508;7.966;2023-04-15T13:52:50;12.97;;;6.57;;
6105;SDS011;3083;51.508;7.966;2023-04-15T13:55:19;15.57;;;7.93;;
6105;SDS011;3083;51.508;7.966;2023-04-15T13:57:46;13.20;;;6.33;;
6105;SDS011;3083;51.508;7.966;2023-04-15T14:00:14;13.23;;;6.93;;
6105;SDS011;3083;51.508;7.966;2023-04-15T14:02:43;13.47;;;6.43;;
6105;SDS011;3083;51.508;7.966;2023-04-15T14:05:10;11.03;;;6.00;;
6105;SDS011;3083;51.508;7.966;2023-04-15T14:07:37;10.47;;;5.33;;
6105;SDS011;3083;51.508;7.966;2023-04-15T14:10:05;10.33;;;5.60;;
6105;SDS011;3083;51.508;7.966;2023-04-15T14:12:35;12.50;;;6.40;;
6105;SDS011;3083;51.508;7.966;2023-04-15T14:15:02;11.33;;;6.43;;
6105;SDS011;3083;51.508;7.966;2023-04-15T14:17:30;16.73;;;6.30;;
6105;SDS011;3083;51.508;7.966;2023-04-15T14:19:58;10.30;;;5.37;;
6105;SDS011;3083;51.508;7.966;2023-04-15T14:22:25;11.53;;;5.57;;
6105;SDS011;3083;51.508;7.966;2023-04-15T14:24:52;11.30;;;5.30;;
6105;SDS011;3083;51.508;7.966;2023-04-15T14:27:19;10.00;;;5.33;;
6105;SDS011;3083;51.508;7.966;2023-04-15T14:29:48;12.23;;;6.30;;
6105;SDS011;3083;51.508;7.966;2023-04-15T14:32:15;10.00;;;5.27;;
6105;SDS011;3083;51.508;7.966;2023-04-15T14:34:42;12.37;;;6.37;;
6105;SDS011;3083;51.508;7.966;2023-04-15T14:37:10;12.60;;;6.30;;
6105;SDS011;3083;51.508;7.966;2023-04-15T14:39:36;11.33;;;6.40;;
6105;SDS011;3083;51.508;7.966;2023-04-15T14:42:03;13.37;;;6.90;;
6105;SDS011;3083;51.508;7.966;2023-04-15T14:44:31;16.73;;;7.57;;
6105;SDS011;3083;51.508;7.966;2023-04-15T14:46:59;11.17;;;5.90;;
6105;SDS011;3083;51.508;7.966;2023-04-15T14:49:26;12.80;;;6.03;;
6105;SDS011;3083;51.508;7.966;2023-04-15T14:51:54;11.40;;;6.00;;
6105;SDS011;3083;51.508;7.966;2023-04-15T14:54:21;12.73;;;5.93;;
6105;SDS011;3083;51.508;7.966;2023-04-15T14:56:48;11.57;;;6.10;;
6105;SDS011;3083;51.508;7.966;2023-04-15T14:59:15;13.93;;;6.63;;
6105;SDS011;3083;51.508;7.966;2023-04-15T15:01:43;18.00;;;7.80;;
6105;SDS011;3083;51.508;7.966;2023-04-15T15:04:12;11.67;;;6.37;;
6105;SDS011;3083;51.508;7.966;2023-04-15T15:06:40;11.27;;;6.13;;
6105;SDS011;3083;51.508;7.966;2023-04-15T15:09:07;10.50;;;5.67;;